createdAt,value
2019-03-29T00:01:29.506Z,80.21
2019-03-29T00:04:00.846Z,80.39
2019-03-29T00:06:31.729Z,80.37
2019-03-29T00:09:02.383Z,80.42
2019-03-29T00:11:33.239Z,80.25
2019-03-29T00:14:03.869Z,80.26
2019-03-29T00:16:38.406Z,80.46
2019-03-29T00:19:09.181Z,80.54
2019-03-29T00:21:39.914Z,80.68
2019-03-29T00:24:10.583Z,80.72
2019-03-29T00:26:41.336Z,80.48
2019-03-29T00:29:11.972Z,80.60
2019-03-29T00:31:42.743Z,80.66
2019-03-29T00:34:13.394Z,80.75
2019-03-29T00:36:44.254Z,80.80
2019-03-29T00:39:15.253Z,80.88
2019-03-29T00:41:46.064Z,80.66
2019-03-29T00:44:17.008Z,80.81
2019-03-29T00:46:47.897Z,81.03
2019-03-29T00:49:18.533Z,81.08
2019-03-29T00:51:49.283Z,80.87
2019-03-29T00:54:20.141Z,80.83
2019-03-29T00:56:50.895Z,81.05
2019-03-29T00:59:21.427Z,81.19
2019-03-29T01:01:53.407Z,81.26
2019-03-29T01:04:24.286Z,81.23
2019-03-29T01:06:55.036Z,81.42
2019-03-29T01:09:25.788Z,81.50
2019-03-29T01:11:56.645Z,81.63
2019-03-29T01:14:27.502Z,81.79
2019-03-29T01:16:58.254Z,81.89
2019-03-29T01:19:29.188Z,82.05
2019-03-29T01:22:00.564Z,82.25
2019-03-29T01:24:31.434Z,82.48
2019-03-29T01:27:02.291Z,82.67
2019-03-29T01:29:33.046Z,82.77
2019-03-29T01:32:03.801Z,82.80
2019-03-29T01:34:34.551Z,82.70
2019-03-29T01:37:05.309Z,82.24
2019-03-29T01:39:36.059Z,82.37
2019-03-29T01:42:07.124Z,82.42
2019-03-29T01:44:37.467Z,82.31
2019-03-29T01:47:08.203Z,82.29
2019-03-29T01:49:38.975Z,82.42
2019-03-29T01:52:09.607Z,82.36
2019-03-29T01:54:40.362Z,82.39
2019-03-29T01:57:11.237Z,82.42
2019-03-29T01:59:42.321Z,82.36
2019-03-29T02:02:14.772Z,82.44
2019-03-29T02:04:45.542Z,81.97
2019-03-29T02:07:16.193Z,81.69
2019-03-29T02:09:46.927Z,81.52
2019-03-29T02:12:17.905Z,80.77
2019-03-29T02:14:48.657Z,80.06
2019-03-29T02:17:19.312Z,79.21
2019-03-29T02:19:50.169Z,78.14
2019-03-29T02:22:20.904Z,77.46
2019-03-29T02:24:51.557Z,76.75
2019-03-29T02:27:22.267Z,75.56
2019-03-29T02:29:53.182Z,75.67
2019-03-29T02:32:25.098Z,75.03
2019-03-29T02:34:56.019Z,75.84
2019-03-29T02:37:26.664Z,75.23
2019-03-29T02:39:57.409Z,73.69
2019-03-29T02:42:28.270Z,73.74
2019-03-29T02:44:59.036Z,74.45
2019-03-29T02:47:29.687Z,75.23
2019-03-29T02:50:00.539Z,74.86
2019-03-29T02:52:31.409Z,74.24
2019-03-29T02:55:02.033Z,74.88
2019-03-29T02:57:32.906Z,75.32
2019-03-29T03:00:04.993Z,74.67
2019-03-29T03:02:36.562Z,73.40
2019-03-29T03:05:08.349Z,73.03
2019-03-29T03:07:38.890Z,73.09
2019-03-29T03:10:10.061Z,73.35
2019-03-29T03:12:40.509Z,73.60
2019-03-29T03:15:11.028Z,73.52
2019-03-29T03:17:41.904Z,73.87
2019-03-29T03:20:15.909Z,73.92
2019-03-29T03:22:46.376Z,73.28
2019-03-29T03:25:17.027Z,72.68
2019-03-29T03:27:47.784Z,71.61
2019-03-29T03:30:18.638Z,71.06
2019-03-29T03:32:49.404Z,69.89
2019-03-29T03:35:19.941Z,71.33
2019-03-29T03:37:50.798Z,71.72
2019-03-29T03:40:21.558Z,71.14
2019-03-29T03:42:52.287Z,70.90
2019-03-29T03:45:22.958Z,71.58
2019-03-29T03:47:53.794Z,70.82
2019-03-29T03:50:40.552Z,69.76
2019-03-29T03:53:11.092Z,70.55
2019-03-29T03:55:42.174Z,70.16
2019-03-29T03:58:12.943Z,70.54
2019-03-29T04:00:55.233Z,69.10
2019-03-29T04:03:27.090Z,68.53
2019-03-29T04:05:57.507Z,68.83
2019-03-29T04:08:28.169Z,68.85
2019-03-29T04:10:59.027Z,67.97
2019-03-29T04:13:38.970Z,67.89
2019-03-29T04:16:09.739Z,67.80
2019-03-29T04:18:40.394Z,68.33
2019-03-29T04:21:11.130Z,67.85
2019-03-29T04:23:41.901Z,66.36
2019-03-29T04:26:12.651Z,65.78
2019-03-29T04:28:43.303Z,65.24
2019-03-29T04:31:14.257Z,65.15
2019-03-29T04:33:45.101Z,64.72
2019-03-29T04:36:15.766Z,64.43
2019-03-29T04:38:46.522Z,63.40
2019-03-29T04:41:17.265Z,63.38
2019-03-29T04:43:48.031Z,63.21
2019-03-29T04:46:18.683Z,61.62
2019-03-29T04:48:49.547Z,60.79
2019-03-29T04:51:20.290Z,60.79
2019-03-29T04:53:51.042Z,59.99
2019-03-29T04:56:21.696Z,59.79
2019-03-29T04:58:52.551Z,59.43
2019-03-29T05:01:23.306Z,59.61
2019-03-29T05:03:55.070Z,58.22
2019-03-29T05:06:25.716Z,59.54
2019-03-29T05:08:55.795Z,60.38
2019-03-29T05:11:26.319Z,60.76
2019-03-29T05:13:56.973Z,59.33
2019-03-29T05:16:27.829Z,59.29
2019-03-29T05:18:58.685Z,59.20
2019-03-29T05:21:29.442Z,59.12
2019-03-29T05:24:00.075Z,59.04
2019-03-29T05:26:30.946Z,58.64
2019-03-29T05:29:01.702Z,58.13
2019-03-29T05:31:32.452Z,58.50
2019-03-29T05:34:03.312Z,58.15
2019-03-29T05:36:34.165Z,56.21
2019-03-29T05:39:05.964Z,57.87
2019-03-29T05:41:36.391Z,55.73
2019-03-29T05:44:07.023Z,55.78
2019-03-29T05:46:36.998Z,56.04
2019-03-29T05:49:07.528Z,55.75
2019-03-29T05:51:38.279Z,54.30
2019-03-29T05:54:09.135Z,51.99
2019-03-29T05:56:39.996Z,51.17
2019-03-29T05:59:10.747Z,51.75
2019-03-29T06:01:41.284Z,51.20
2019-03-29T06:04:11.930Z,50.93
2019-03-29T06:06:42.802Z,49.69
2019-03-29T06:09:13.558Z,48.27
2019-03-29T06:11:44.206Z,46.11
2019-03-29T06:14:15.063Z,46.05
2019-03-29T06:16:45.818Z,46.13
2019-03-29T06:19:16.570Z,47.00
2019-03-29T06:21:47.223Z,47.41
2019-03-29T06:24:17.958Z,47.88
2019-03-29T06:26:48.753Z,46.98
2019-03-29T06:29:19.466Z,46.76
2019-03-29T06:31:49.648Z,47.04
2019-03-29T06:34:20.070Z,47.58
2019-03-29T06:36:50.184Z,46.92
2019-03-29T06:39:21.392Z,46.26
2019-03-29T06:41:52.321Z,45.90
2019-03-29T06:44:23.085Z,46.71
2019-03-29T06:46:53.739Z,45.47
2019-03-29T06:49:24.595Z,44.75
2019-03-29T06:51:55.349Z,46.34
2019-03-29T06:54:26.117Z,45.77
2019-03-29T06:56:56.843Z,46.00
2019-03-29T06:59:27.710Z,46.57
2019-03-29T07:01:58.347Z,45.43
2019-03-29T07:04:29.934Z,45.88
2019-03-29T07:07:00.573Z,45.08
2019-03-29T07:09:30.648Z,44.59
2019-03-29T07:12:01.159Z,44.98
2019-03-29T07:14:31.808Z,45.28
2019-03-29T07:17:01.679Z,44.14
2019-03-29T07:19:32.207Z,45.20
2019-03-29T07:22:03.270Z,44.84
2019-03-29T07:24:34.125Z,43.74
2019-03-29T07:27:04.880Z,44.95
2019-03-29T07:29:35.529Z,42.65
2019-03-29T07:32:06.387Z,41.07
2019-03-29T07:34:37.243Z,41.66
2019-03-29T07:37:07.999Z,42.42
2019-03-29T07:39:38.650Z,41.46
2019-03-29T07:42:09.504Z,39.54
2019-03-29T07:44:40.138Z,40.91
2019-03-29T07:47:10.911Z,39.89
2019-03-29T07:49:41.561Z,41.19
2019-03-29T07:52:12.296Z,40.26
2019-03-29T07:54:43.072Z,39.19
2019-03-29T07:57:14.026Z,39.18
2019-03-29T07:59:44.882Z,37.75
2019-03-29T08:02:15.519Z,39.26
2019-03-29T08:04:46.695Z,37.07
2019-03-29T08:07:27.065Z,36.47
2019-03-29T08:09:49.824Z,35.26
2019-03-29T08:12:22.027Z,37.10
2019-03-29T08:14:52.885Z,35.59
2019-03-29T08:17:23.843Z,36.26
2019-03-29T08:20:35.604Z,36.66
2019-03-29T08:22:35.317Z,34.56
2019-03-29T08:25:06.126Z,35.63
2019-03-29T08:27:36.995Z,35.64
2019-03-29T08:30:06.943Z,35.36
2019-03-29T08:32:37.349Z,34.19
2019-03-29T08:35:08.101Z,33.94
2019-03-29T08:37:38.875Z,34.88
2019-03-29T08:40:09.509Z,33.62
2019-03-29T08:42:40.178Z,35.03
2019-03-29T08:45:10.830Z,34.12
2019-03-29T08:47:41.683Z,34.83
2019-03-29T08:50:12.424Z,34.98
2019-03-29T08:52:43.191Z,34.10
2019-03-29T08:55:17.240Z,34.93
2019-03-29T08:57:46.539Z,34.68
2019-03-29T09:00:20.464Z,33.79
2019-03-29T09:02:51.321Z,34.38
2019-03-29T09:05:23.201Z,34.85
2019-03-29T09:07:53.953Z,33.46
2019-03-29T09:10:26.190Z,33.42
2019-03-29T09:12:56.994Z,34.13
2019-03-29T09:15:27.890Z,33.28
2019-03-29T09:17:59.950Z,33.58
2019-03-29T09:20:34.104Z,32.98
2019-03-29T09:23:03.677Z,32.31
2019-03-29T09:25:34.427Z,33.07
2019-03-29T09:28:05.079Z,32.35
2019-03-29T09:30:38.100Z,33.36
2019-03-29T09:33:09.061Z,33.03
2019-03-29T09:35:42.569Z,33.58
2019-03-29T09:38:12.003Z,33.80
2019-03-29T09:40:46.613Z,33.77
2019-03-29T09:43:14.844Z,35.39
2019-03-29T09:45:45.695Z,32.82
2019-03-29T09:48:16.328Z,34.55
2019-03-29T09:50:50.562Z,35.12
2019-03-29T09:53:19.286Z,34.17
2019-03-29T09:55:53.281Z,34.15
2019-03-29T09:58:21.796Z,34.74
2019-03-29T10:00:51.876Z,34.95
2019-03-29T10:03:22.402Z,34.40
2019-03-29T10:05:54.267Z,34.45
2019-03-29T10:08:25.137Z,34.78
2019-03-29T10:10:55.871Z,33.48
2019-03-29T10:13:26.541Z,32.51
2019-03-29T10:15:57.397Z,33.44
2019-03-29T10:18:28.152Z,33.68
2019-03-29T10:20:58.907Z,33.04
2019-03-29T10:23:29.555Z,32.97
2019-03-29T10:26:00.210Z,33.06
2019-03-29T10:28:30.739Z,32.35
2019-03-29T10:31:00.821Z,32.46
2019-03-29T10:33:31.346Z,32.97
2019-03-29T10:36:03.519Z,33.32
2019-03-29T10:38:35.800Z,33.22
2019-03-29T10:41:11.687Z,33.24
2019-03-29T10:43:42.542Z,33.62
2019-03-29T10:46:13.279Z,32.17
2019-03-29T10:48:43.948Z,32.71
2019-03-29T10:51:16.320Z,33.46
2019-03-29T10:53:46.872Z,33.81
2019-03-29T10:56:17.629Z,33.49
2019-03-29T10:58:48.297Z,33.42
2019-03-29T11:01:19.133Z,34.01
2019-03-29T11:03:49.783Z,33.84
2019-03-29T11:06:21.576Z,34.10
2019-03-29T11:08:52.331Z,32.96
2019-03-29T11:14:17.960Z,33.63
2019-03-29T11:16:53.230Z,34.05
2019-03-29T11:19:23.679Z,32.61
2019-03-29T11:21:54.534Z,31.28
2019-03-29T11:24:26.924Z,31.60
2019-03-29T11:26:57.582Z,31.30
2019-03-29T11:29:29.641Z,32.42
2019-03-29T11:32:00.499Z,32.03
2019-03-29T11:34:31.149Z,31.68
2019-03-29T11:37:08.362Z,30.46
2019-03-29T11:39:39.016Z,31.26
2019-03-29T11:42:09.749Z,31.10
2019-03-29T11:44:40.521Z,30.78
2019-03-29T11:47:11.174Z,31.85
2019-03-29T11:49:42.029Z,31.09
2019-03-29T11:52:12.768Z,30.01
2019-03-29T11:54:44.050Z,30.70
2019-03-29T11:57:14.581Z,30.84
2019-03-29T11:59:45.456Z,31.25
2019-03-29T12:02:30.144Z,30.98
2019-03-29T12:04:48.090Z,30.61
2019-03-29T12:07:25.488Z,29.50
2019-03-29T12:09:56.141Z,30.03
2019-03-29T12:12:27.740Z,30.10
2019-03-29T12:14:58.247Z,29.80
2019-03-29T12:17:28.897Z,29.79
2019-03-29T12:19:59.668Z,29.67
2019-03-29T12:22:30.526Z,30.73
2019-03-29T12:25:01.374Z,30.11
2019-03-29T12:27:32.032Z,30.74
2019-03-29T12:30:02.694Z,30.83
2019-03-29T12:32:33.221Z,31.39
2019-03-29T12:35:05.519Z,30.42
2019-03-29T12:37:35.969Z,31.55
2019-03-29T12:40:07.666Z,31.80
2019-03-29T12:42:38.072Z,31.98
2019-03-29T12:45:11.298Z,31.96
2019-03-29T12:47:42.154Z,31.48
2019-03-29T12:50:12.888Z,32.35
2019-03-29T12:52:43.559Z,31.89
2019-03-29T12:55:14.396Z,32.05
2019-03-29T12:57:45.057Z,32.68
2019-03-29T13:00:16.023Z,31.16
2019-03-29T13:02:47.086Z,31.46
2019-03-29T13:05:17.944Z,31.35
2019-03-29T13:07:52.904Z,32.18
2019-03-29T13:10:21.786Z,31.89
2019-03-29T13:12:51.863Z,32.42
2019-03-29T13:15:23.515Z,31.64
2019-03-29T13:17:54.252Z,32.32
2019-03-29T13:20:24.226Z,32.13
2019-03-29T13:22:54.753Z,31.75
2019-03-29T13:25:25.712Z,31.17
2019-03-29T13:27:59.445Z,30.94
2019-03-29T13:30:28.856Z,31.78
2019-03-29T13:32:59.609Z,31.18
2019-03-29T13:35:30.263Z,31.29
2019-03-29T13:38:01.117Z,31.87
2019-03-29T13:40:31.854Z,31.56
2019-03-29T13:43:02.978Z,31.33
2019-03-29T13:45:33.785Z,31.02
2019-03-29T13:48:04.540Z,31.39
2019-03-29T13:50:34.602Z,31.01
2019-03-29T13:53:05.025Z,31.40
2019-03-29T13:55:35.760Z,31.26
2019-03-29T13:58:06.308Z,30.20
2019-03-29T14:00:36.243Z,30.51
2019-03-29T14:03:06.693Z,30.51
2019-03-29T14:05:37.240Z,30.45
2019-03-29T14:08:09.033Z,31.29
2019-03-29T14:10:39.258Z,31.63
2019-03-29T14:13:09.137Z,32.50
2019-03-29T14:15:39.642Z,32.48
2019-03-29T14:18:10.312Z,32.79
2019-03-29T14:20:40.171Z,32.43
2019-03-29T14:23:10.574Z,32.42
2019-03-29T14:25:41.328Z,31.56
2019-03-29T14:28:13.514Z,30.64
2019-03-29T14:30:44.167Z,31.39
2019-03-29T14:33:15.013Z,31.60
2019-03-29T14:35:46.357Z,32.21
2019-03-29T14:38:17.472Z,31.10
2019-03-29T14:40:48.229Z,30.49
2019-03-29T14:43:18.976Z,30.29
2019-03-29T14:45:49.835Z,31.22
2019-03-29T14:48:20.382Z,32.20
2019-03-29T14:51:00.922Z,33.32
2019-03-29T14:53:38.993Z,33.38
2019-03-29T14:56:15.189Z,33.63
2019-03-29T14:58:53.391Z,33.87
2019-03-29T15:01:38.580Z,33.93
2019-03-29T15:04:09.290Z,33.95
2019-03-29T15:06:39.823Z,34.34
2019-03-29T15:09:11.514Z,35.06
2019-03-29T15:11:42.373Z,35.52
2019-03-29T15:14:13.024Z,35.50
2019-03-29T15:16:42.985Z,36.10
2019-03-29T15:19:13.121Z,36.17
2019-03-29T15:21:43.265Z,35.26
2019-03-29T15:24:13.686Z,36.00
2019-03-29T15:26:44.424Z,35.93
2019-03-29T15:29:15.092Z,36.01
2019-03-29T15:31:45.053Z,36.20
2019-03-29T15:34:15.456Z,36.25
2019-03-29T15:36:47.192Z,36.55
2019-03-29T15:39:17.389Z,37.18
2019-03-29T15:41:48.130Z,37.63
2019-03-29T15:44:19.208Z,37.74
2019-03-29T15:46:49.738Z,38.20
2019-03-29T15:49:20.506Z,38.36
2019-03-29T15:51:51.364Z,39.32
2019-03-29T15:54:22.017Z,38.82
2019-03-29T15:56:51.982Z,39.44
2019-03-29T15:59:22.384Z,40.35
2019-03-29T16:01:53.159Z,40.35
2019-03-29T16:04:23.684Z,40.29
2019-03-29T16:06:54.560Z,40.30
2019-03-29T16:09:26.335Z,40.99
2019-03-29T16:11:57.075Z,41.09
2019-03-29T16:14:27.846Z,41.11
2019-03-29T16:16:58.493Z,40.79
2019-03-29T16:19:29.246Z,41.29
2019-03-29T16:22:00.005Z,41.24
2019-03-29T16:24:30.767Z,41.43
2019-03-29T16:27:01.401Z,41.52
2019-03-29T16:29:32.266Z,41.89
2019-03-29T16:32:03.025Z,42.44
2019-03-29T16:34:33.774Z,42.66
2019-03-29T16:37:04.424Z,42.58
2019-03-29T16:39:35.280Z,42.89
2019-03-29T16:42:06.034Z,42.75
2019-03-29T16:44:36.788Z,43.19
2019-03-29T16:47:07.645Z,43.09
2019-03-29T16:49:38.500Z,43.56
2019-03-29T16:52:09.154Z,43.85
2019-03-29T16:54:39.787Z,44.12
2019-03-29T16:57:10.667Z,44.28
2019-03-29T16:59:41.414Z,44.13
2019-03-29T17:02:12.167Z,43.78
2019-03-29T17:04:42.699Z,44.50
2019-03-29T17:07:13.469Z,44.09
2019-03-29T17:09:45.247Z,43.66
2019-03-29T17:12:16.103Z,44.05
2019-03-29T17:14:46.856Z,44.32
2019-03-29T17:17:17.510Z,44.17
2019-03-29T17:19:48.368Z,44.33
2019-03-29T17:22:19.004Z,44.21
2019-03-29T17:24:56.830Z,44.12
2019-03-29T17:27:21.956Z,44.50
2019-03-29T17:29:52.812Z,44.30
2019-03-29T17:32:22.671Z,44.52
2019-03-29T17:34:53.195Z,44.41
2019-03-29T17:37:24.563Z,44.39
2019-03-29T17:39:55.096Z,44.26
2019-03-29T17:42:26.070Z,44.93
2019-03-29T17:44:59.022Z,44.54
2019-03-29T17:47:29.007Z,44.94
2019-03-29T17:49:59.661Z,44.84
2019-03-29T17:52:30.518Z,45.08
2019-03-29T17:55:01.254Z,45.05
2019-03-29T17:57:32.023Z,45.44
2019-03-29T18:00:02.865Z,45.66
2019-03-29T18:02:33.412Z,45.75
2019-03-29T18:05:05.880Z,45.55
2019-03-29T18:07:36.249Z,46.01
2019-03-29T18:10:08.100Z,45.47
2019-03-29T18:12:38.372Z,45.59
2019-03-29T18:15:09.126Z,46.02
2019-03-29T18:17:39.002Z,46.32
2019-03-29T18:20:09.524Z,46.41
2019-03-29T18:22:40.276Z,46.33
2019-03-29T18:25:11.135Z,46.35
2019-03-29T18:27:41.992Z,46.58
2019-03-29T18:30:14.568Z,46.39
2019-03-29T18:32:45.321Z,46.24
2019-03-29T18:35:15.973Z,46.47
2019-03-29T18:37:46.744Z,46.59
2019-03-29T18:40:23.329Z,46.46
2019-03-29T18:42:54.974Z,46.79
2019-03-29T18:45:25.349Z,46.68
2019-03-29T18:47:56.437Z,47.16
2019-03-29T18:50:26.857Z,47.29
2019-03-29T18:52:57.611Z,47.38
2019-03-29T18:55:28.348Z,47.28
2019-03-29T18:57:59.118Z,46.85
2019-03-29T19:00:31.384Z,47.21
2019-03-29T19:03:01.757Z,47.44
2019-03-29T19:05:32.604Z,47.19
2019-03-29T19:08:03.767Z,47.35
2019-03-29T19:10:35.134Z,47.46
2019-03-29T19:13:05.467Z,47.18
2019-03-29T19:15:36.236Z,47.32
2019-03-29T19:18:06.889Z,47.29
2019-03-29T19:20:37.640Z,47.37
2019-03-29T19:23:08.497Z,47.26
2019-03-29T19:25:39.252Z,47.32
2019-03-29T19:28:09.781Z,47.64
2019-03-29T19:30:40.655Z,47.61
2019-03-29T19:33:11.510Z,47.66
2019-03-29T19:35:42.146Z,47.92
2019-03-29T19:38:12.225Z,47.70
2019-03-29T19:40:42.750Z,47.99
2019-03-29T19:43:13.403Z,47.83
2019-03-29T19:45:44.153Z,48.05
2019-03-29T19:48:15.013Z,47.94
2019-03-29T19:50:45.766Z,47.83
2019-03-29T19:53:16.364Z,48.66
2019-03-29T19:55:47.214Z,47.98
2019-03-29T19:58:18.097Z,47.90
2019-03-29T20:00:48.896Z,48.05
2019-03-29T20:03:19.659Z,47.61
2019-03-29T20:05:50.498Z,47.52
2019-03-29T20:08:21.124Z,47.71
2019-03-29T20:10:52.803Z,47.49
2019-03-29T20:13:23.164Z,47.07
2019-03-29T20:15:53.798Z,47.34
2019-03-29T20:18:23.774Z,47.71
2019-03-29T20:20:54.180Z,47.57
2019-03-29T20:23:24.954Z,47.30
2019-03-29T20:25:55.500Z,47.51
2019-03-29T20:28:26.356Z,47.49
2019-03-29T20:30:56.989Z,47.61
2019-03-29T20:33:27.765Z,47.84
2019-03-29T20:35:58.294Z,47.81
2019-03-29T20:38:29.167Z,47.69
2019-03-29T20:41:00.026Z,47.43
2019-03-29T20:43:30.662Z,47.79
2019-03-29T20:46:00.738Z,47.99
2019-03-29T20:48:31.268Z,48.43
2019-03-29T20:51:01.897Z,49.74
2019-03-29T20:53:32.771Z,51.35
2019-03-29T20:56:09.336Z,51.92
2019-03-29T20:58:39.987Z,52.36
2019-03-29T21:01:10.642Z,52.83
2019-03-29T21:03:40.618Z,52.99
2019-03-29T21:06:11.143Z,53.33
2019-03-29T21:08:41.895Z,53.71
2019-03-29T21:11:13.556Z,53.92
2019-03-29T21:13:44.019Z,54.21
2019-03-29T21:16:14.650Z,54.20
2019-03-29T21:18:45.404Z,54.39
2019-03-29T21:21:16.156Z,54.71
2019-03-29T21:23:47.386Z,54.88
2019-03-29T21:26:17.994Z,54.76
2019-03-29T21:28:48.856Z,54.88
2019-03-29T21:31:19.600Z,55.00
2019-03-29T21:33:50.135Z,54.75
2019-03-29T21:36:20.102Z,54.07
2019-03-29T21:38:50.899Z,52.84
2019-03-29T21:41:21.590Z,52.52
2019-03-29T21:43:52.329Z,52.32
2019-03-29T21:46:23.099Z,52.28
2019-03-29T21:48:53.746Z,52.31
2019-03-29T21:51:24.604Z,52.29
2019-03-29T21:53:55.362Z,52.40
2019-03-29T21:56:26.097Z,53.06
2019-03-29T21:58:56.766Z,53.75
2019-03-29T22:01:27.623Z,54.34
2019-03-29T22:03:58.377Z,54.22
2019-03-29T22:06:29.132Z,54.20
2019-03-29T22:08:59.987Z,53.52
2019-03-29T22:11:31.855Z,53.74
2019-03-29T22:14:02.724Z,54.31
2019-03-29T22:16:33.475Z,54.26
2019-03-29T22:19:04.128Z,53.90
2019-03-29T22:21:34.984Z,54.13
2019-03-29T22:24:05.623Z,53.50
2019-03-29T22:26:36.373Z,53.55
2019-03-29T22:29:06.961Z,53.63
2019-03-29T22:31:37.795Z,53.25
2019-03-29T22:34:08.424Z,53.12
2019-03-29T22:36:39.200Z,51.77
2019-03-29T22:39:09.731Z,51.72
2019-03-29T22:41:40.606Z,50.30
2019-03-29T22:44:11.358Z,50.80
2019-03-29T22:46:42.111Z,50.89
2019-03-29T22:49:12.763Z,49.91
2019-03-29T22:51:43.621Z,50.28
2019-03-29T22:54:14.253Z,50.79
2019-03-29T22:56:45.025Z,50.70
2019-03-29T22:59:15.680Z,51.16
2019-03-29T23:01:46.742Z,51.32
2019-03-29T23:04:17.490Z,51.30
2019-03-29T23:06:48.141Z,51.42
2019-03-29T23:09:18.879Z,51.86
2019-03-29T23:11:50.887Z,51.84
2019-03-29T23:14:21.617Z,51.69
2019-03-29T23:16:52.387Z,52.04
2019-03-29T23:19:23.043Z,51.95
2019-03-29T23:21:53.896Z,52.41
2019-03-29T23:24:24.531Z,52.82
2019-03-29T23:26:55.284Z,53.73
2019-03-29T23:29:25.935Z,52.84
2019-03-29T23:31:56.809Z,53.36
2019-03-29T23:34:27.564Z,54.54
2019-03-29T23:36:58.314Z,54.13
2019-03-29T23:39:28.968Z,55.48
2019-03-29T23:41:59.823Z,55.29
2019-03-29T23:44:30.456Z,56.39
2019-03-29T23:47:01.228Z,56.47
2019-03-29T23:49:31.880Z,56.43
2019-03-29T23:52:02.728Z,56.39
2019-03-29T23:54:33.491Z,56.57
2019-03-29T23:57:04.349Z,57.13
2019-03-29T23:59:35.203Z,57.33
